Airfield :
LOGIN :

Register | Disclaimer

   EN    FR    IT 

 










Legend :    VFR   Marginal VFR   IFR   Intensive IFR   Very Intensive IFR
Visi :
Ceiling :
>= 8 km
>= 3000ft
5 to 8 km
1000 to 3000 ft
1500m to 5 km
500 to 1000 ft
800 to 1500m
200 to 500 ft
< 800m
< 200 ft
Symbols :   Thunderstorms  Fog  Heavy snow  Heavy precipitations  Wind > 20 kt
SIGMETs :     Misc.  Thunderstorms  Icing  Turbulence  Mountain Waves  Volcanic Ashes






- Airport Elevation : 187 ft


ETNW - Wunstorf AB

CURRENT METAR :
  • 220020Z 20014KT 9999 -RA BKN022 OVC040 08/06 Q0999 WHT

EXPIRED METARs :
  • 212320Z 20013KT 9999 -RA BKN026 OVC060 08/05 Q1000 BLU
  • 212220Z 20014G24KT 9999 -RA BKN026 OVC080 09/05 Q1002 BLU
  • 212120Z 20012KT 9999 -RA BKN032 OVC080 09/04 Q1003 BLU
  • 212020Z 19013KT 9999 -RA BKN040 OVC090 10/04 Q1004 BLU BLU

TAF TAF ETNW
Valid from the 22 at 00:00 until the 23 at 00:00 UTC


212320Z 2200/2224 20010KT 8000 -RA SCT015 BKN025
TEMPO 2200/2209 21012G22KT 4000 RA BKN012
BECMG 2209/2211 22010KT 9999 NSW SCT020 BKN030
BECMG 2215/2217 18015G25KT 8000 -RA BKN040
BECMG 2220/2222 20020G35KT 9999 NSW BKN050
TEMPO 2222/2224 22025G45KT 9999 NSW BKN050



MET'MAP, your aeronautical weather chart ! - Copyright ORBIFLY December 2007 - Disclaimer

ORBIFLY MET'MAP TEAM :

Programming & Development : Alexandra Zaïnal
Original concept : Baudouin d'Aumeries
Technical & hardware support : Manuel Goepfert
Assistance : Marc-Olivier Méhu




SOURCES & CREDITS :

   NOAA